Time;durP1;ratioP1;P1;durP2;ratioP2;P2;SDS_P1;SDS_P2;PMS_P1;PMS_P2;Temp;Humidity;BMP_temperature;BMP_pressure;BME280_temperature;BME280_humidity;BME280_pressure;Samples;Min_cycle;Max_cycle;Signal;HPM_P1;HPM_P2
2021/04/25 00:01:19;;;;;;;18.10;7.88;;;5.00;99.90;;;;;;5049363;28;20079;-66
2021/04/25 00:03:44;;;;;;;18.30;8.05;;;5.00;99.90;;;;;;5048906;28;20029;-67
2021/04/25 00:06:10;;;;;;;22.80;9.73;;;5.00;99.90;;;;;;5061980;28;20055;-65
2021/04/25 00:08:36;;;;;;;20.95;8.57;;;4.90;99.90;;;;;;5060822;28;20125;-63
2021/04/25 00:11:03;;;;;;;23.77;8.43;;;4.90;99.90;;;;;;5056443;28;20032;-65
2021/04/25 00:13:29;;;;;;;20.45;8.13;;;4.90;99.90;;;;;;5048744;28;20029;-70
2021/04/25 00:15:55;;;;;;;22.17;8.15;;;4.90;99.90;;;;;;5056602;28;20079;-63
2021/04/25 00:18:21;;;;;;;20.25;8.15;;;4.90;99.90;;;;;;5067780;28;20028;-67
2021/04/25 00:20:46;;;;;;;20.98;8.70;;;4.80;99.90;;;;;;5069148;28;20083;-66
2021/04/25 00:23:12;;;;;;;17.88;7.30;;;4.80;99.90;;;;;;5068201;28;20063;-65
2021/04/25 00:25:38;;;;;;;20.98;7.90;;;4.70;99.90;;;;;;5059492;28;20092;-65
2021/04/25 00:28:03;;;;;;;21.92;8.13;;;4.70;99.90;;;;;;5080960;23;20342;-63
2021/04/25 00:30:29;;;;;;;20.00;7.82;;;4.70;99.90;;;;;;5069289;28;20079;-65
2021/04/25 00:32:55;;;;;;;19.15;7.80;;;4.60;99.90;;;;;;5070943;28;20178;-61
2021/04/25 00:35:21;;;;;;;21.42;8.60;;;4.60;99.90;;;;;;5070951;28;20020;-63
2021/04/25 00:37:48;;;;;;;20.05;8.35;;;4.70;99.90;;;;;;5071990;28;20025;-61
2021/04/25 00:40:15;;;;;;;20.05;7.80;;;4.70;99.90;;;;;;5069832;28;20506;-61
2021/04/25 00:42:42;;;;;;;20.13;8.15;;;4.70;99.90;;;;;;5071165;28;20031;-64
2021/04/25 00:45:14;;;;;;;22.48;9.35;;;4.60;99.90;;;;;;5070940;28;20047;-64
2021/04/25 00:47:46;;;;;;;19.67;8.23;;;4.60;99.90;;;;;;5070818;28;20031;-61
2021/04/25 00:50:13;;;;;;;22.60;8.32;;;4.70;99.90;;;;;;5071804;28;20102;-62
2021/04/25 00:52:44;;;;;;;20.23;7.23;;;4.80;99.90;;;;;;5072138;28;20052;-63
2021/04/25 00:55:11;;;;;;;19.42;8.10;;;4.90;99.90;;;;;;5071956;28;20013;-64
2021/04/25 00:57:37;;;;;;;21.20;9.02;;;5.00;99.90;;;;;;5071999;28;20032;-65
2021/04/25 01:00:06;;;;;;;20.92;8.00;;;5.10;99.90;;;;;;5071745;28;20025;-64
2021/04/25 01:02:31;;;;;;;;;;;5.20;99.90;;;;;;5071179;28;20036;-63
2021/04/25 01:04:57;;;;;;;18.92;8.50;;;5.40;99.90;;;;;;5070652;28;19905;-62
2021/04/25 01:07:23;;;;;;;22.65;8.38;;;5.40;99.90;;;;;;5070489;28;20035;-65
2021/04/25 01:09:48;;;;;;;21.08;7.95;;;5.60;99.90;;;;;;5071775;28;20032;-62
2021/04/25 01:12:14;;;;;;;18.80;8.13;;;5.50;99.90;;;;;;5071982;28;20027;-60
2021/04/25 01:14:39;;;;;;;22.15;8.20;;;5.60;99.90;;;;;;5071916;28;20054;-64
2021/04/25 01:17:05;;;;;;;18.25;7.25;;;5.70;99.90;;;;;;5071782;28;20040;-65
2021/04/25 01:19:31;;;;;;;18.52;8.57;;;5.80;99.90;;;;;;5071674;28;20031;-63
2021/04/25 01:21:56;;;;;;;21.05;8.10;;;5.90;99.90;;;;;;5070822;28;20453;-64
2021/04/25 01:24:22;;;;;;;19.35;9.05;;;5.90;99.90;;;;;;5053993;28;20079;-64
2021/04/25 01:26:47;;;;;;;19.15;9.10;;;6.00;99.90;;;;;;5070170;28;20500;-64
2021/04/25 01:29:13;;;;;;;18.27;8.80;;;6.00;99.90;;;;;;5067023;28;20408;-63
2021/04/25 01:31:39;;;;;;;19.25;8.63;;;6.00;99.90;;;;;;5072060;28;20016;-64
2021/04/25 01:34:04;;;;;;;19.83;9.27;;;6.00;99.90;;;;;;5068378;28;20499;-62
2021/04/25 01:36:30;;;;;;;19.00;8.95;;;6.20;99.90;;;;;;5071635;28;20032;-64
2021/04/25 01:38:56;;;;;;;20.08;8.75;;;6.20;99.90;;;;;;5071426;28;20504;-64
2021/04/25 01:41:22;;;;;;;19.25;9.73;;;6.20;99.90;;;;;;5071687;28;20029;-62
2021/04/25 01:43:47;;;;;;;21.65;10.38;;;6.30;99.90;;;;;;5071632;28;20036;-62
2021/04/25 01:46:15;;;;;;;21.48;9.32;;;6.20;99.90;;;;;;5071425;28;20098;-61
2021/04/25 01:48:41;;;;;;;16.45;8.75;;;6.10;99.90;;;;;;5063912;28;20473;-63
2021/04/25 01:51:07;;;;;;;20.92;8.65;;;5.90;99.90;;;;;;5071439;28;20570;-63
2021/04/25 01:53:32;;;;;;;19.35;8.73;;;5.90;99.90;;;;;;5075321;28;20103;-63
2021/04/25 01:55:58;;;;;;;21.00;9.32;;;5.90;99.90;;;;;;5073933;28;20032;-62
2021/04/25 01:58:24;;;;;;;17.85;8.65;;;6.00;99.90;;;;;;5073822;28;20074;-63
2021/04/25 02:00:49;;;;;;;18.98;8.88;;;6.00;99.90;;;;;;5074950;28;20572;-64
2021/04/25 02:03:16;;;;;;;19.40;8.65;;;6.10;99.90;;;;;;5073827;28;20078;-63
2021/04/25 02:05:42;;;;;;;21.67;9.60;;;6.00;99.90;;;;;;5075146;28;20025;-64
2021/04/25 02:08:10;;;;;;;19.30;8.70;;;6.10;99.90;;;;;;5073753;28;20031;-67
2021/04/25 02:10:36;;;;;;;20.02;9.32;;;6.10;99.90;;;;;;5074864;28;20557;-63
2021/04/25 02:13:04;;;;;;;18.73;9.00;;;6.10;99.90;;;;;;5073666;28;20107;-62
2021/04/25 02:15:29;;;;;;;19.30;9.53;;;6.10;99.90;;;;;;5073670;28;20016;-64
2021/04/25 02:17:55;;;;;;;17.45;9.13;;;6.10;99.90;;;;;;5074844;28;20051;-62
2021/04/25 02:20:22;;;;;;;18.27;8.75;;;6.10;99.90;;;;;;5074504;28;20025;-64
2021/04/25 02:22:48;;;;;;;19.23;8.38;;;6.10;99.90;;;;;;5073618;28;20119;-62
2021/04/25 02:25:15;;;;;;;18.77;9.98;;;6.10;99.90;;;;;;5073555;28;20060;-62
2021/04/25 02:27:41;;;;;;;17.52;8.48;;;6.10;99.90;;;;;;5074456;28;20025;-62
2021/04/25 02:30:10;;;;;;;17.10;9.07;;;6.10;99.90;;;;;;5074488;28;20025;-62
2021/04/25 02:32:36;;;;;;;17.92;8.60;;;6.10;99.90;;;;;;5073459;28;20326;-64
2021/04/25 02:35:04;;;;;;;17.77;9.35;;;5.90;99.90;;;;;;5073329;28;20020;-64
2021/04/25 02:37:29;;;;;;;17.60;8.90;;;6.00;99.90;;;;;;5073113;28;20039;-61
2021/04/25 02:39:55;;;;;;;19.30;8.95;;;5.90;99.90;;;;;;5074237;28;20447;-64
2021/04/25 02:42:21;;;;;;;16.55;8.30;;;5.80;99.90;;;;;;5073176;28;20438;-61
2021/04/25 02:44:46;;;;;;;17.92;8.52;;;5.90;99.90;;;;;;5074329;28;20032;-63
2021/04/25 02:47:12;;;;;;;18.98;8.13;;;5.90;99.90;;;;;;5073010;28;20025;-63
2021/04/25 02:49:37;;;;;;;19.13;8.75;;;6.00;99.90;;;;;;5072985;28;20029;-64
2021/04/25 02:52:03;;;;;;;18.23;8.50;;;6.10;99.90;;;;;;5074706;28;20425;-64
2021/04/25 02:54:29;;;;;;;19.30;9.30;;;6.10;99.90;;;;;;5072206;28;20056;-64
2021/04/25 02:56:54;;;;;;;19.20;8.73;;;6.10;99.90;;;;;;5073949;28;20061;-62
2021/04/25 02:59:20;;;;;;;17.42;8.63;;;6.20;99.90;;;;;;5073933;28;20095;-64
2021/04/25 03:01:46;;;;;;;18.17;9.48;;;6.20;99.90;;;;;;5074246;28;20429;-62
2021/04/25 03:04:11;;;;;;;18.25;9.15;;;6.20;99.90;;;;;;5073206;28;20386;-64
2021/04/25 03:06:37;;;;;;;17.88;8.30;;;6.20;99.90;;;;;;5073910;28;20074;-65
2021/04/25 03:09:03;;;;;;;15.95;8.82;;;6.10;99.90;;;;;;5073757;28;20073;-61
2021/04/25 03:11:28;;;;;;;18.23;8.82;;;6.10;99.90;;;;;;5073730;28;20040;-64
2021/04/25 03:13:54;;;;;;;16.02;8.68;;;6.10;99.90;;;;;;5072629;28;20025;-62
2021/04/25 03:16:20;;;;;;;17.50;8.30;;;6.10;99.90;;;;;;5073787;28;20025;-64
2021/04/25 03:18:45;;;;;;;18.65;9.40;;;6.10;99.90;;;;;;5072165;28;20123;-63
2021/04/25 03:21:11;;;;;;;17.75;9.15;;;6.20;99.90;;;;;;5072332;28;20487;-63
2021/04/25 03:23:37;;;;;;;18.55;9.68;;;6.20;99.90;;;;;;5073732;28;20090;-64
2021/04/25 03:26:02;;;;;;;17.15;9.05;;;6.20;99.90;;;;;;5073402;28;20028;-64
2021/04/25 03:28:28;;;;;;;16.45;9.10;;;6.10;99.90;;;;;;5073260;28;20076;-65
2021/04/25 03:30:55;;;;;;;16.23;8.27;;;6.10;99.90;;;;;;5073281;28;20066;-62
2021/04/25 03:33:21;;;;;;;19.67;9.10;;;6.20;99.90;;;;;;5073533;28;20025;-65
2021/04/25 03:35:47;;;;;;;21.27;9.57;;;6.20;99.90;;;;;;5073353;28;20016;-64
2021/04/25 03:38:13;;;;;;;17.02;8.60;;;6.20;99.90;;;;;;5073222;28;20078;-64
2021/04/25 03:40:39;;;;;;;19.20;8.80;;;6.10;99.90;;;;;;5072995;28;20020;-63
2021/04/25 03:43:04;;;;;;;17.75;8.73;;;6.20;99.90;;;;;;5073057;28;20481;-63
2021/04/25 03:45:30;;;;;;;16.50;8.48;;;6.20;99.90;;;;;;5073121;28;20029;-62
2021/04/25 03:47:55;;;;;;;18.98;9.18;;;6.10;99.90;;;;;;5072852;28;20047;-64
2021/04/25 03:50:24;;;;;;;18.48;9.05;;;6.10;99.90;;;;;;5072850;28;20027;-64
2021/04/25 03:52:49;;;;;;;;;;;6.10;99.90;;;;;;5072376;28;20052;-63
2021/04/25 03:55:18;;;;;;;18.77;8.55;;;6.20;99.90;;;;;;5072931;28;19962;-64
2021/04/25 03:57:43;;;;;;;18.75;8.43;;;6.20;99.90;;;;;;5071593;28;20028;-64
2021/04/25 04:00:13;;;;;;;16.05;8.57;;;6.20;99.90;;;;;;5072837;28;20037;-64
2021/04/25 04:02:38;;;;;;;19.33;9.27;;;6.20;99.90;;;;;;5072866;28;20501;-63
2021/04/25 04:05:05;;;;;;;18.73;9.05;;;6.10;99.90;;;;;;5072833;28;20096;-61
2021/04/25 04:07:31;;;;;;;18.75;9.15;;;6.00;99.90;;;;;;5072540;28;20025;-62
2021/04/25 04:09:56;;;;;;;18.42;9.07;;;6.00;99.90;;;;;;5072378;28;20031;-64
2021/04/25 04:12:22;;;;;;;19.50;9.60;;;5.90;99.90;;;;;;5072733;28;20020;-63
2021/04/25 04:14:48;;;;;;;16.85;8.52;;;5.80;99.90;;;;;;5071227;28;20387;-65
2021/04/25 04:17:14;;;;;;;20.52;8.82;;;5.80;99.90;;;;;;5072521;28;20113;-62
2021/04/25 04:19:40;;;;;;;15.88;8.25;;;5.90;99.90;;;;;;5072387;28;20488;-63
2021/04/25 04:22:05;;;;;;;16.75;8.70;;;6.00;99.90;;;;;;5072355;28;20028;-64
2021/04/25 04:24:31;;;;;;;16.58;9.13;;;6.00;99.90;;;;;;5072478;28;20104;-62
2021/04/25 04:26:57;;;;;;;16.23;8.70;;;6.00;99.90;;;;;;5070994;28;20119;-63
2021/04/25 04:29:22;;;;;;;15.40;8.52;;;5.90;99.90;;;;;;5072427;28;20035;-65
2021/04/25 04:31:48;;;;;;;18.95;9.18;;;6.00;99.90;;;;;;5072413;28;20028;-64
2021/04/25 04:34:14;;;;;;;16.50;8.93;;;6.00;99.90;;;;;;5071191;28;20017;-62
2021/04/25 04:36:39;;;;;;;18.08;8.48;;;6.00;99.90;;;;;;5072437;28;20024;-63
2021/04/25 04:39:05;;;;;;;17.88;8.98;;;5.90;99.90;;;;;;5072101;28;20058;-63
2021/04/25 04:41:31;;;;;;;16.85;8.77;;;5.80;99.90;;;;;;5072214;28;20536;-65
2021/04/25 04:43:58;;;;;;;18.17;9.10;;;5.90;99.90;;;;;;5072211;28;20044;-64
2021/04/25 04:46:24;;;;;;;18.02;9.05;;;5.90;99.90;;;;;;5072126;28;20431;-65
2021/04/25 04:48:49;;;;;;;19.25;8.60;;;5.80;99.90;;;;;;5070894;28;20073;-65
2021/04/25 04:51:15;;;;;;;19.08;9.52;;;5.90;99.90;;;;;;5070834;28;20131;-62
2021/04/25 04:53:41;;;;;;;16.85;8.32;;;5.90;99.90;;;;;;5072047;28;20480;-61
2021/04/25 04:56:06;;;;;;;18.75;8.93;;;6.00;99.90;;;;;;5072225;28;20039;-64
2021/04/25 04:58:32;;;;;;;18.75;9.50;;;6.20;99.90;;;;;;5070655;28;20025;-63
2021/04/25 05:00:57;;;;;;;18.15;9.13;;;6.20;99.90;;;;;;5070833;28;20028;-62
2021/04/25 05:03:23;;;;;;;18.20;8.75;;;6.10;99.90;;;;;;5072124;28;20052;-63
2021/04/25 05:05:49;;;;;;;22.50;12.25;;;6.10;99.90;;;;;;5070626;28;20476;-63
2021/04/25 05:08:14;;;;;;;20.65;10.82;;;6.20;99.90;;;;;;5071955;28;20441;-63
2021/04/25 05:10:40;;;;;;;20.05;9.00;;;6.30;99.90;;;;;;5070617;28;20399;-63
2021/04/25 05:13:10;;;;;;;17.02;9.13;;;6.30;99.90;;;;;;5070849;28;20047;-64
2021/04/25 05:15:40;;;;;;;21.00;9.00;;;6.30;99.90;;;;;;5071915;28;20044;-64
2021/04/25 05:18:06;;;;;;;21.55;10.23;;;6.40;99.90;;;;;;5070431;28;20021;-63
2021/04/25 05:20:31;;;;;;;18.42;8.65;;;6.30;99.90;;;;;;5070337;28;20078;-63
2021/04/25 05:22:58;;;;;;;19.30;10.10;;;6.30;99.90;;;;;;5072061;28;20028;-63
2021/04/25 05:25:25;;;;;;;18.45;9.65;;;6.30;99.90;;;;;;5071902;28;20017;-63
2021/04/25 05:27:51;;;;;;;30.70;16.67;;;6.30;99.90;;;;;;5074415;28;20028;-64
2021/04/25 05:30:17;;;;;;;18.27;9.88;;;6.40;99.90;;;;;;5075682;28;20322;-62
2021/04/25 05:32:43;;;;;;;17.27;9.38;;;6.40;99.90;;;;;;5074428;28;20024;-64
2021/04/25 05:35:09;;;;;;;21.58;12.60;;;6.50;99.90;;;;;;5075505;28;20027;-64
2021/04/25 05:37:35;;;;;;;24.90;13.02;;;6.50;99.90;;;;;;5075449;28;20520;-64
2021/04/25 05:40:01;;;;;;;18.10;9.60;;;6.50;99.90;;;;;;5075315;28;20113;-65
2021/04/25 05:42:27;;;;;;;20.58;9.63;;;6.60;99.90;;;;;;5075697;28;20561;-62
2021/04/25 05:44:52;;;;;;;16.83;8.38;;;6.60;99.90;;;;;;5074331;28;20040;-64
2021/04/25 05:47:18;;;;;;;16.67;8.93;;;6.40;99.90;;;;;;5073982;28;20035;-64
2021/04/25 05:49:44;;;;;;;16.00;8.70;;;6.40;99.90;;;;;;5073723;28;20016;-64
2021/04/25 05:52:09;;;;;;;18.88;9.00;;;6.50;99.90;;;;;;5075169;28;20021;-63
2021/04/25 05:54:35;;;;;;;16.20;8.95;;;6.60;99.90;;;;;;5073877;28;20115;-64
2021/04/25 05:57:00;;;;;;;19.45;11.18;;;6.60;99.90;;;;;;5073929;28;20029;-62
2021/04/25 05:59:26;;;;;;;18.65;8.85;;;6.60;99.90;;;;;;5075099;28;20043;-63
2021/04/25 06:01:52;;;;;;;18.17;9.00;;;6.70;99.90;;;;;;5075264;28;20028;-64
2021/04/25 06:04:17;;;;;;;24.25;10.23;;;6.70;99.90;;;;;;5073769;28;20039;-64
2021/04/25 06:06:43;;;;;;;19.27;8.98;;;6.80;99.90;;;;;;5075027;28;20028;-64
2021/04/25 06:09:09;;;;;;;18.05;8.77;;;6.80;99.90;;;;;;5074835;28;20031;-65
2021/04/25 06:11:35;;;;;;;15.68;8.85;;;6.90;99.90;;;;;;5075274;28;20036;-66
2021/04/25 06:14:01;;;;;;;15.13;8.25;;;6.90;99.90;;;;;;5075173;28;20020;-64
2021/04/25 06:16:27;;;;;;;16.73;8.18;;;6.70;99.90;;;;;;5074928;28;20365;-63
2021/04/25 06:18:52;;;;;;;16.90;8.50;;;6.80;99.90;;;;;;5074910;28;20024;-61
2021/04/25 06:21:18;;;;;;;15.63;8.57;;;7.00;99.90;;;;;;5074949;28;20028;-64
2021/04/25 06:23:44;;;;;;;16.48;8.25;;;7.10;99.90;;;;;;5074960;28;20085;-63
2021/04/25 06:26:09;;;;;;;18.77;9.07;;;7.10;99.90;;;;;;5073331;28;20020;-63
2021/04/25 06:28:35;;;;;;;15.63;8.65;;;7.00;99.90;;;;;;5096800;22;20072;-66
2021/04/25 06:31:01;;;;;;;15.90;8.65;;;7.10;99.90;;;;;;5073149;28;20387;-66
2021/04/25 06:33:26;;;;;;;19.20;9.20;;;7.10;99.90;;;;;;5073418;28;20027;-67
2021/04/25 06:35:52;;;;;;;17.20;8.80;;;7.20;99.90;;;;;;5073403;28;20412;-67
2021/04/25 06:38:18;;;;;;;17.50;9.70;;;7.20;99.90;;;;;;5072179;28;20104;-67
2021/04/25 06:40:43;;;;;;;17.52;8.60;;;7.20;99.90;;;;;;5072442;28;20099;-67
2021/04/25 06:43:09;;;;;;;15.75;8.32;;;7.40;99.90;;;;;;5072487;28;20535;-67
2021/04/25 06:45:35;;;;;;;14.88;8.23;;;7.50;99.90;;;;;;5072781;28;20021;-67
2021/04/25 06:48:00;;;;;;;16.55;8.65;;;7.70;99.90;;;;;;5073011;28;20116;-66
2021/04/25 06:50:26;;;;;;;15.07;8.55;;;7.90;99.90;;;;;;5071639;28;20064;-67
2021/04/25 06:52:52;;;;;;;16.60;9.15;;;7.60;99.90;;;;;;5071759;28;20556;-68
2021/04/25 06:55:19;;;;;;;17.73;9.35;;;7.50;99.90;;;;;;5071532;28;20123;-67
2021/04/25 06:57:47;;;;;;;16.10;8.70;;;7.60;99.90;;;;;;5071423;28;20036;-67
2021/04/25 07:00:14;;;;;;;17.87;9.20;;;7.70;99.90;;;;;;5071701;28;20024;-68
2021/04/25 07:02:40;;;;;;;18.48;9.13;;;7.90;99.90;;;;;;5072821;28;20032;-66
2021/04/25 07:05:07;;;;;;;21.65;10.38;;;8.20;99.90;;;;;;5071791;28;20017;-67
2021/04/25 07:07:33;;;;;;;17.98;9.68;;;8.00;99.90;;;;;;5072859;28;20032;-67
2021/04/25 07:09:59;;;;;;;17.42;10.05;;;7.90;99.90;;;;;;5072584;28;20020;-66
2021/04/25 07:12:26;;;;;;;19.17;9.63;;;8.00;99.90;;;;;;5072596;28;20028;-67
2021/04/25 07:14:53;;;;;;;23.00;14.07;;;8.10;99.90;;;;;;5072825;28;20385;-66
2021/04/25 07:17:19;;;;;;;17.85;9.52;;;8.30;99.90;;;;;;5068490;28;20016;-67
2021/04/25 07:19:44;;;;;;;15.27;8.43;;;8.50;99.90;;;;;;5062191;28;20228;-66
2021/04/25 07:22:10;;;;;;;18.77;9.30;;;8.40;99.90;;;;;;5060883;28;20028;-66
2021/04/25 07:24:36;;;;;;;17.20;9.00;;;8.50;99.90;;;;;;5051036;28;20033;-68
2021/04/25 07:27:02;;;;;;;19.10;9.85;;;8.30;99.90;;;;;;5064162;28;20029;-65
2021/04/25 07:29:30;;;;;;;18.42;8.80;;;8.30;99.90;;;;;;5070204;28;20032;-66
2021/04/25 07:31:56;;;;;;;18.27;9.75;;;8.10;99.90;;;;;;5072114;28;20031;-66
2021/04/25 07:34:22;;;;;;;16.70;9.68;;;8.20;99.90;;;;;;5066522;28;20025;-67
2021/04/25 07:36:47;;;;;;;19.38;9.00;;;8.10;99.90;;;;;;5059384;28;20503;-67
2021/04/25 07:39:14;;;;;;;17.45;9.20;;;8.40;99.90;;;;;;5069726;28;20033;-66
2021/04/25 07:41:40;;;;;;;16.52;9.18;;;8.20;99.90;;;;;;5070338;28;20025;-65
2021/04/25 07:44:06;;;;;;;16.77;9.10;;;8.40;99.90;;;;;;5071603;28;20028;-65
2021/04/25 07:46:32;;;;;;;21.25;9.52;;;;;;;;;;5070048;28;20037;-66
2021/04/25 07:48:58;;;;;;;17.13;9.00;;;8.80;99.90;;;;;;5070057;28;20102;-65
2021/04/25 07:51:24;;;;;;;21.35;9.63;;;8.80;99.90;;;;;;5066777;28;20400;-66
2021/04/25 07:53:52;;;;;;;18.90;9.57;;;8.50;99.90;;;;;;5050250;28;20071;-66
2021/04/25 07:56:18;;;;;;;17.23;9.50;;;8.60;99.90;;;;;;5051843;28;20025;-66
2021/04/25 07:58:44;;;;;;;16.02;9.20;;;8.90;99.90;;;;;;5049577;28;20025;-65
2021/04/25 08:01:10;;;;;;;17.25;8.95;;;9.00;99.90;;;;;;5051136;28;20069;-65
2021/04/25 08:03:36;;;;;;;19.52;10.88;;;9.20;99.90;;;;;;5049752;28;20371;-64
2021/04/25 08:06:04;;;;;;;18.23;9.48;;;9.00;99.90;;;;;;5051502;28;20059;-65
2021/04/25 08:08:30;;;;;;;17.63;9.60;;;9.00;99.90;;;;;;5049740;28;20077;-66
2021/04/25 08:10:55;;;;;;;17.35;9.63;;;9.00;99.90;;;;;;5050533;28;20036;-64
2021/04/25 08:13:21;;;;;;;16.55;9.30;;;9.00;99.90;;;;;;5050027;28;20123;-65
2021/04/25 08:15:47;;;;;;;20.58;9.65;;;8.80;99.90;;;;;;5049974;28;20033;-65
2021/04/25 08:18:12;;;;;;;18.38;9.20;;;8.70;99.90;;;;;;5050321;28;20052;-65
2021/04/25 08:20:38;;;;;;;16.42;9.20;;;9.10;99.90;;;;;;5069084;28;20377;-61
2021/04/25 08:23:04;;;;;;;15.15;9.07;;;9.00;99.90;;;;;;5069638;28;20028;-65
2021/04/25 08:25:30;;;;;;;17.23;9.30;;;;;;;;;;5071342;28;20020;-66
2021/04/25 08:27:57;;;;;;;15.85;8.82;;;9.30;99.90;;;;;;5054746;28;20472;-65
2021/04/25 08:30:25;;;;;;;17.73;9.07;;;9.40;99.90;;;;;;5050299;28;20052;-66
2021/04/25 08:32:51;;;;;;;21.35;13.43;;;9.40;99.90;;;;;;5050364;28;20029;-66
2021/04/25 08:35:18;;;;;;;16.58;9.20;;;9.50;99.90;;;;;;5061422;28;20028;-66
2021/04/25 08:37:44;;;;;;;18.40;9.60;;;9.70;99.90;;;;;;5060317;28;20715;-66
2021/04/25 08:40:10;;;;;;;17.50;9.27;;;9.80;99.90;;;;;;5058906;28;20024;-65
2021/04/25 08:42:36;;;;;;;18.15;8.95;;;9.50;99.90;;;;;;5061513;28;20154;-65
2021/04/25 08:45:03;;;;;;;20.80;11.40;;;9.60;99.90;;;;;;5060259;28;20111;-65
2021/04/25 08:47:30;;;;;;;18.17;9.57;;;9.50;99.90;;;;;;5057738;28;20035;-65
2021/04/25 08:50:01;;;;;;;18.92;9.27;;;9.70;99.90;;;;;;5067116;28;20387;-64
2021/04/25 08:52:28;;;;;;;19.83;9.55;;;9.70;99.90;;;;;;5068265;28;20028;-66
2021/04/25 08:54:54;;;;;;;17.90;9.30;;;9.80;99.90;;;;;;5050534;28;20024;-65
2021/04/25 08:57:21;;;;;;;18.10;10.38;;;9.60;99.90;;;;;;5048896;28;20043;-64
2021/04/25 08:59:47;;;;;;;19.67;8.93;;;9.60;99.90;;;;;;5048252;28;20024;-65
2021/04/25 09:02:22;;;;;;;18.30;9.55;;;;;;;;;;5049244;28;20028;-65
2021/04/25 09:04:48;;;;;;;20.15;9.40;;;;;;;;;;5048687;28;20447;-64
2021/04/25 09:07:15;;;;;;;18.75;9.15;;;;;;;;;;5048234;28;20025;-64
2021/04/25 09:09:46;;;;;;;19.52;9.23;;;;;;;;;;5049669;28;20021;-64
2021/04/25 09:12:15;;;;;;;18.52;8.85;;;;;;;;;;5049157;28;20044;-65
2021/04/25 09:14:41;;;;;;;17.27;9.23;;;;;;;;;;5049078;28;20025;-63
2021/04/25 09:17:10;;;;;;;18.02;9.68;;;;;;;;;;5049820;28;20473;-64
2021/04/25 09:19:48;;;;;;;19.52;9.18;;;;;;;;;;5049621;28;20033;-65
2021/04/25 09:22:15;;;;;;;20.08;9.43;;;;;;;;;;5050161;28;20029;-64
2021/04/25 09:24:41;;;;;;;17.55;9.13;;;;;;;;;;5049189;28;20036;-65
2021/04/25 09:27:07;;;;;;;17.92;9.70;;;;;;;;;;5049051;28;20024;-63
2021/04/25 09:29:50;;;;;;;17.20;9.65;;;;;;;;;;5048155;28;20033;-64
2021/04/25 09:32:20;;;;;;;17.13;9.13;;;;;;;;;;5049821;28;20065;-64
2021/04/25 09:34:46;;;;;;;16.05;9.25;;;;;;;;;;5048738;28;20108;-65
2021/04/25 09:37:13;;;;;;;19.65;9.43;;;;;;;;;;5050395;28;20055;-64
2021/04/25 09:39:39;;;;;;;20.17;10.48;;;;;;;;;;5049380;28;20077;-63
2021/04/25 09:42:07;;;;;;;19.23;9.13;;;;;;;;;;5049872;28;20396;-64
2021/04/25 09:44:37;;;;;;;18.52;9.02;;;;;;;;;;5049748;28;20021;-65
2021/04/25 09:47:04;;;;;;;15.82;9.07;;;;;;;;;;5046853;28;20524;-65
2021/04/25 09:49:37;;;;;;;18.55;9.98;;;;;;;;;;5048862;28;20036;-64
2021/04/25 09:52:03;;;;;;;17.55;9.50;;;;;;;;;;5048929;28;20468;-65
2021/04/25 09:54:29;;;;;;;21.05;10.75;;;;;;;;;;5048720;28;20021;-64
2021/04/25 09:56:55;;;;;;;19.20;9.75;;;;;;;;;;5048781;28;20052;-65
2021/04/25 09:59:21;;;;;;;15.68;9.50;;;;;;;;;;5049393;28;20471;-65
2021/04/25 10:01:48;;;;;;;18.63;10.23;;;9.90;99.90;;;;;;5049402;28;20101;-64
2021/04/25 10:04:35;;;;;;;17.90;10.55;;;12.40;93.70;;;;;;5048942;28;20108;-64
2021/04/25 10:07:02;;;;;;;19.05;9.70;;;12.60;93.80;;;;;;5049891;28;20389;-63
2021/04/25 10:09:28;;;;;;;17.65;9.55;;;12.40;92.50;;;;;;5049487;28;20029;-65
2021/04/25 10:11:58;;;;;;;17.33;10.25;;;12.50;92.90;;;;;;5050288;28;20390;-63
2021/04/25 10:14:25;;;;;;;27.83;10.10;;;12.20;92.20;;;;;;5053304;28;20017;-64
2021/04/25 10:16:52;;;;;;;18.90;9.40;;;12.30;91.90;;;;;;5053197;28;20025;-64
2021/04/25 10:19:18;;;;;;;18.25;10.05;;;12.00;92.30;;;;;;5052822;28;20639;-64
2021/04/25 10:21:45;;;;;;;16.77;9.40;;;11.80;91.80;;;;;;5053551;28;20056;-64
2021/04/25 10:24:11;;;;;;;18.63;9.68;;;11.80;91.10;;;;;;5052303;28;20373;-65
2021/04/25 10:27:03;;;;;;;21.67;11.38;;;12.10;91.70;;;;;;5055186;28;20025;-65
2021/04/25 10:29:32;;;;;;;20.70;9.45;;;;;;;;;;5057011;28;20029;-64
2021/04/25 10:31:59;;;;;;;18.75;10.88;;;;;;;;;;5055227;28;20025;-64
2021/04/25 10:34:26;;;;;;;16.30;9.52;;;;;;;;;;5053616;28;20135;-64
2021/04/25 10:36:52;;;;;;;20.73;9.70;;;;;;;;;;5051755;28;20021;-65
2021/04/25 10:39:36;;;;;;;17.27;10.00;;;;;;;;;;5052088;28;20083;-63
2021/04/25 10:42:21;;;;;;;19.67;10.55;;;;;;;;;;5051548;28;20559;-64
2021/04/25 10:45:01;;;;;;;18.92;9.90;;;;;;;;;;5052815;28;20486;-65
2021/04/25 10:47:30;;;;;;;16.63;9.88;;;;;;;;;;5051858;28;20025;-65
2021/04/25 10:49:59;;;;;;;17.75;10.60;;;;;;;;;;5060081;28;20121;-65
2021/04/25 10:52:26;;;;;;;;;;;12.60;92.20;;;;;;5073679;28;20024;-63
2021/04/25 10:55:11;;;;;;;16.92;9.88;;;14.30;83.70;;;;;;5073963;28;19905;-65
2021/04/25 10:58:00;;;;;;;17.05;10.48;;;14.60;80.10;;;;;;4715157;28;10000571;-64
2021/04/25 11:00:32;;;;;;;17.88;10.38;;;13.70;81.70;;;;;;5055357;28;20025;-64
2021/04/25 11:02:58;;;;;;;21.05;10.25;;;;;;;;;;5070578;28;20097;-65
2021/04/25 11:05:45;;;;;;;17.60;9.63;;;;;;;;;;5067735;28;20091;-64
2021/04/25 11:08:15;;;;;;;19.08;10.57;;;;;;;;;;5050692;28;20048;-65
2021/04/25 11:10:54;;;;;;;18.45;9.75;;;;;;;;;;5068816;28;20021;-63
2021/04/25 11:13:46;;;;;;;18.60;9.95;;;14.00;81.00;;;;;;5069558;28;20028;-64
2021/04/25 11:16:18;;;;;;;20.33;10.63;;;14.20;79.20;;;;;;5050141;28;20087;-62
2021/04/25 11:18:52;;;;;;;17.33;8.85;;;14.60;78.40;;;;;;5053826;28;20021;-64
2021/04/25 11:21:27;;;;;;;18.90;9.48;;;14.40;79.10;;;;;;5070051;28;20649;-65
2021/04/25 11:23:58;;;;;;;18.83;10.50;;;14.10;77.00;;;;;;5067583;28;20396;-64
2021/04/25 11:26:39;;;;;;;19.52;10.20;;;13.80;78.90;;;;;;5067664;28;20027;-64
2021/04/25 11:29:51;;;;;;;17.95;9.73;;;13.90;78.50;;;;;;5069138;28;20032;-65
2021/04/25 11:32:28;;;;;;;19.60;10.57;;;14.60;76.30;;;;;;5055316;28;20036;-63
2021/04/25 11:34:57;;;;;;;21.13;9.93;;;13.20;79.00;;;;;;5049589;28;20032;-65
2021/04/25 11:37:29;;;;;;;18.63;9.35;;;13.60;80.60;;;;;;5052174;28;20025;-66
2021/04/25 11:39:57;;;;;;;16.45;9.57;;;13.90;78.10;;;;;;5058039;28;20065;-65
2021/04/25 11:42:24;;;;;;;;;;;14.00;78.30;;;;;;5061973;28;20135;-64
2021/04/25 11:44:50;;;;;;;17.85;9.68;;;13.80;76.60;;;;;;5061241;28;20012;-65
2021/04/25 11:47:18;;;;;;;17.38;9.90;;;14.40;78.30;;;;;;5059767;28;20029;-64
2021/04/25 11:49:54;;;;;;;18.40;10.23;;;16.70;74.30;;;;;;5060061;28;20031;-66
2021/04/25 11:52:22;;;;;;;17.35;10.70;;;;;;;;;;5060180;28;20435;-65
2021/04/25 11:54:57;;;;;;;19.90;10.98;;;17.70;70.80;;;;;;5059106;28;20027;-65
2021/04/25 11:57:24;;;;;;;18.48;10.30;;;;;;;;;;5059659;28;20024;-65
2021/04/25 12:00:28;;;;;;;19.35;10.48;;;19.50;64.70;;;;;;5068904;28;20032;-66
2021/04/25 12:02:55;;;;;;;16.27;11.00;;;;;;;;;;5069883;28;20028;-66
2021/04/25 12:05:27;;;;;;;17.02;9.75;;;17.80;64.70;;;;;;5065253;28;20047;-65
2021/04/25 12:08:03;;;;;;;19.17;10.65;;;;;;;;;;5049886;28;20052;-65
2021/04/25 12:10:34;;;;;;;17.95;10.40;;;17.00;65.70;;;;;;5050357;28;20021;-64
2021/04/25 12:13:03;;;;;;;16.83;10.23;;;;;;;;;;5050675;28;20156;-66
2021/04/25 12:15:36;;;;;;;17.85;10.75;;;15.50;64.90;;;;;;5050757;28;20095;-65
2021/04/25 12:18:02;;;;;;;18.58;11.02;;;;;;;;;;5050708;28;20078;-65
2021/04/25 12:20:29;;;;;;;21.02;11.13;;;;;;;;;;5048700;28;20036;-65
2021/04/25 12:22:56;;;;;;;18.48;10.95;;;;;;;;;;5049603;28;20027;-65
2021/04/25 12:25:22;;;;;;;18.25;10.23;;;;;;;;;;5049746;28;20029;-65
2021/04/25 12:27:53;;;;;;;18.00;10.27;;;;;;;;;;5062684;22;20520;-64
2021/04/25 12:30:30;;;;;;;17.60;10.18;;;;;;;;;;5030971;28;20386;-64
2021/04/25 12:33:05;;;;;;;15.85;9.93;;;;;;;;;;5032781;28;20075;-62
2021/04/25 12:35:36;;;;;;;16.88;10.13;;;;;;;;;;5031731;28;20022;-65
2021/04/25 12:38:37;;;;;;;18.83;10.57;;;;;;;;;;5033114;28;20088;-66
2021/04/25 12:41:06;;;;;;;15.88;10.60;;;;;;;;;;5042438;28;20092;-66
2021/04/25 12:43:33;;;;;;;19.45;10.98;;;;;;;;;;5031821;28;20120;-63
2021/04/25 12:46:10;;;;;;;16.02;10.65;;;;;;;;;;5031896;28;20032;-65
2021/04/25 12:48:42;;;;;;;17.45;11.27;;;;;;;;;;5031628;28;20464;-66
2021/04/25 12:51:14;;;;;;;18.48;11.18;;;;;;;;;;5032708;28;20025;-66
2021/04/25 12:53:46;;;;;;;20.10;11.52;;;;;;;;;;5031905;28;20056;-67
2021/04/25 12:56:22;;;;;;;19.17;11.70;;;;;;;;;;5033183;28;20025;-65
2021/04/25 12:59:07;;;;;;;17.80;11.35;;;;;;;;;;5031433;28;20089;-65
2021/04/25 13:01:45;;;;;;;16.40;10.88;;;;;;;;;;5032994;28;20084;-65
2021/04/25 13:04:23;;;;;;;18.33;11.10;;;;;;;;;;5032906;28;20484;-64
2021/04/25 13:06:49;;;;;;;;;;;;;;;;;;5033006;28;20124;-64